Time;durP1;ratioP1;P1;durP2;ratioP2;P2;SDS_P1;SDS_P2;PMS_P1;PMS_P2;Temp;Humidity;BMP_temperature;BMP_pressure;BME280_temperature;BME280_humidity;BME280_pressure;Samples;Min_cycle;Max_cycle;Signal;HPM_P1;HPM_P2
2022/12/08 00:01:30;;;;;;;44.13;28.20;;;;;;;;;;4930941;29;20032;-71
2022/12/08 00:03:58;;;;;;;47.67;28.13;;;;;;;;;;4929428;29;20032;-71
2022/12/08 00:09:26;;;;;;;40.75;23.08;;;;;;;;;;4928858;29;20040;-71
2022/12/08 00:11:54;;;;;;;38.00;20.13;;;;;;;;;;4921918;29;20068;-71
2022/12/08 00:14:48;;;;;;;52.65;21.58;;;;;;;;;;4926336;29;20035;-72
2022/12/08 00:17:15;;;;;;;34.55;17.85;;;;;;;;;;4925224;29;20044;-73
2022/12/08 00:19:42;;;;;;;33.67;17.27;;;;;;;;;;4931129;29;20099;-72
2022/12/08 00:22:09;;;;;;;37.45;18.67;;;;;;;;;;4929441;29;20090;-72
2022/12/08 00:24:38;;;;;;;36.20;20.95;;;;;;;;;;4932567;29;20489;-72
2022/12/08 00:27:05;;;;;;;36.28;19.77;;;;;;;;;;4933567;29;20023;-72
2022/12/08 00:29:31;;;;;;;24.90;14.93;;;;;;;;;;4922635;29;20040;-72
2022/12/08 00:31:57;;;;;;;20.42;12.82;;;;;;;;;;4921657;29;20078;-72
2022/12/08 00:34:23;;;;;;;21.25;13.50;;;;;;;;;;4928591;29;20457;-72
2022/12/08 00:36:49;;;;;;;30.10;13.60;;;;;;;;;;4926016;29;20107;-71
2022/12/08 00:39:17;;;;;;;24.40;12.40;;;;;;;;;;4931934;29;20455;-71
2022/12/08 00:44:28;;;;;;;22.20;11.98;;;;;;;;;;4926330;29;20036;-72
2022/12/08 00:46:54;;;;;;;19.52;11.75;;;;;;;;;;4931456;29;20086;-72
2022/12/08 00:49:20;;;;;;;24.42;15.23;;;;;;;;;;4925916;29;20063;-73
2022/12/08 00:51:46;;;;;;;25.77;13.82;;;;;;;;;;4927923;29;20099;-73
2022/12/08 00:54:12;;;;;;;24.33;12.50;;;;;;;;;;4924326;29;20518;-72
2022/12/08 00:56:38;;;;;;;21.10;13.25;;;;;;;;;;4933213;29;20043;-72
2022/12/08 00:59:06;;;;;;;22.08;12.40;;;;;;;;;;4929145;29;20046;-73
2022/12/08 01:01:33;;;;;;;21.58;11.63;;;;;;;;;;4925773;29;20035;-73
2022/12/08 01:04:03;;;;;;;22.17;12.15;;;;;;;;;;4930906;29;20355;-73
2022/12/08 01:06:30;;;;;;;19.75;11.60;;;;;;;;;;4927195;29;20032;-71
2022/12/08 01:08:56;;;;;;;23.48;13.15;;;;;;;;;;4931368;29;20024;-72
2022/12/08 01:11:22;;;;;;;21.60;11.48;;;;;;;;;;4926574;29;20051;-72
2022/12/08 01:13:48;;;;;;;21.38;12.18;;;;;;;;;;4924951;29;20837;-73
2022/12/08 01:16:23;;;;;;;22.45;12.07;;;;;;;;;;4923499;29;20039;-72
2022/12/08 01:18:49;;;;;;;22.67;11.00;;;;;;;;;;4928994;29;20508;-72
2022/12/08 01:21:15;;;;;;;20.52;11.90;;;;;;;;;;4929165;29;20059;-72
2022/12/08 01:23:42;;;;;;;26.45;13.27;;;;;;;;;;4919607;29;20113;-72
2022/12/08 01:26:10;;;;;;;22.98;11.55;;;;;;;;;;4924830;29;20445;-72
2022/12/08 01:28:37;;;;;;;20.95;12.13;;;;;;;;;;4926425;29;20508;-72
2022/12/08 01:31:03;;;;;;;20.23;12.13;;;;;;;;;;4923783;29;20493;-71
2022/12/08 01:33:29;;;;;;;20.73;12.40;;;;;;;;;;4924892;29;20027;-72
2022/12/08 01:35:55;;;;;;;18.90;11.20;;;;;;;;;;4926925;29;20035;-71
2022/12/08 01:38:21;;;;;;;18.60;11.50;;;;;;;;;;4925418;29;20508;-72
2022/12/08 01:40:48;;;;;;;23.27;12.55;;;;;;;;;;4928512;29;20413;-72
2022/12/08 01:43:19;;;;;;;21.65;12.50;;;;;;;;;;4924206;29;20112;-72
2022/12/08 01:45:46;;;;;;;23.98;13.13;;;;;;;;;;4919342;29;20124;-72
2022/12/08 01:48:22;;;;;;;22.15;12.13;;;;;;;;;;4928117;29;20031;-72
2022/12/08 01:50:50;;;;;;;19.70;12.05;;;;;;;;;;4928716;29;20063;-72
2022/12/08 01:53:27;;;;;;;26.52;12.13;;;;;;;;;;4924827;29;20039;-72
2022/12/08 01:55:58;;;;;;;23.08;12.43;;;;;;;;;;4922783;29;20051;-72
2022/12/08 01:58:33;;;;;;;20.00;12.70;;;;;;;;;;4926415;29;20035;-72
2022/12/08 02:00:59;;;;;;;26.05;13.00;;;;;;;;;;4927622;29;20093;-72
2022/12/08 02:03:34;;;;;;;22.73;13.75;;;;;;;;;;4922747;29;20038;-72
2022/12/08 02:06:01;;;;;;;20.63;12.48;;;;;;;;;;4928774;29;20039;-72
2022/12/08 02:08:29;;;;;;;24.58;13.48;;;;;;;;;;4929973;28;20035;-71
2022/12/08 02:10:55;;;;;;;22.40;12.75;;;;;;;;;;4928729;29;20043;-72
2022/12/08 02:13:22;;;;;;;30.02;13.43;;;;;;;;;;4924115;29;20036;-73
2022/12/08 02:16:25;;;;;;;27.25;13.05;;;;;;;;;;4923967;29;20497;-73
2022/12/08 02:19:06;;;;;;;22.27;12.20;;;;;;;;;;4927600;29;20079;-72
2022/12/08 02:21:47;;;;;;;27.35;13.15;;;;;;;;;;4925045;29;20059;-73
2022/12/08 02:24:16;;;;;;;22.00;12.73;;;;;;;;;;4930239;29;20106;-73
2022/12/08 02:27:07;;;;;;;21.90;12.45;;;;;;;;;;4922359;29;20087;-73
2022/12/08 02:30:14;;;;;;;20.50;12.05;;;;;;;;;;4944986;29;20099;-73
2022/12/08 02:33:08;;;;;;;21.83;12.35;;;;;;;;;;4926881;29;20035;-73
2022/12/08 02:35:48;;;;;;;26.15;14.48;;;;;;;;;;4925381;29;20171;-72
2022/12/08 02:38:38;;;;;;;25.52;15.25;;;;;;;;;;4926771;29;20135;-73
2022/12/08 02:41:23;;;;;;;30.58;16.77;;;;;;;;;;4932132;29;20043;-70
2022/12/08 02:44:04;;;;;;;23.88;14.15;;;;;;;;;;4929122;29;20043;-73
2022/12/08 02:46:42;;;;;;;26.73;14.57;;;;;;;;;;4933586;29;20059;-72
2022/12/08 02:49:09;;;;;;;28.50;15.15;;;;;;;;;;4933913;29;20214;-72
2022/12/08 02:51:35;;;;;;;28.38;14.90;;;;;;;;;;4922660;29;20124;-72
2022/12/08 02:54:02;;;;;;;30.58;16.02;;;;;;;;;;4930129;29;20165;-72
2022/12/08 02:56:40;;;;;;;31.13;16.35;;;;;;;;;;4921837;29;20059;-72
2022/12/08 02:59:27;;;;;;;31.50;17.02;;;;;;;;;;4926947;29;20095;-72
2022/12/08 03:02:08;;;;;;;30.52;15.35;;;;;;;;;;4926770;29;20123;-72
2022/12/08 03:05:00;;;;;;;32.75;17.98;;;;;;;;;;4924104;29;20032;-71
2022/12/08 03:07:46;;;;;;;30.33;15.65;;;;;;;;;;4927079;29;20121;-73
2022/12/08 03:10:24;;;;;;;27.52;16.20;;;;;;;;;;4919773;29;20120;-72
2022/12/08 03:13:03;;;;;;;37.10;17.42;;;;;;;;;;4928121;29;20409;-72
2022/12/08 03:15:33;;;;;;;29.08;15.90;;;;;;;;;;4922757;29;20036;-73
2022/12/08 03:18:00;;;;;;;25.85;15.13;;;;;;;;;;4927016;29;20032;-72
2022/12/08 03:20:28;;;;;;;23.75;13.32;;;;;;;;;;4929258;29;20040;-71
2022/12/08 03:22:56;;;;;;;23.02;14.48;;;;;;;;;;4930674;29;20036;-72
2022/12/08 03:25:25;;;;;;;26.17;14.30;;;;;;;;;;4919702;29;20036;-71
2022/12/08 03:27:52;;;;;;;26.77;15.32;;;;;;;;;;4926555;29;20040;-72
2022/12/08 03:30:18;;;;;;;26.50;14.57;;;;;;;;;;4920285;29;20402;-72
2022/12/08 03:32:57;;;;;;;28.40;15.20;;;;;;;;;;4928422;29;20028;-72
2022/12/08 03:35:29;;;;;;;25.83;14.98;;;;;;;;;;4930287;29;20032;-72
2022/12/08 03:38:06;;;;;;;28.58;14.32;;;;;;;;;;4931829;29;20040;-72
2022/12/08 03:40:32;;;;;;;34.63;15.07;;;;;;;;;;4928045;29;20736;-72
2022/12/08 03:42:58;;;;;;;32.25;14.77;;;;;;;;;;4928524;29;20063;-72
2022/12/08 03:45:25;;;;;;;44.30;15.68;;;;;;;;;;4928424;29;20113;-72
2022/12/08 03:47:51;;;;;;;34.25;15.20;;;;;;;;;;4920067;29;20043;-72
2022/12/08 03:50:19;;;;;;;33.95;15.20;;;;;;;;;;4926757;29;20028;-73
2022/12/08 03:52:45;;;;;;;37.90;15.13;;;;;;;;;;4932276;29;20118;-72
2022/12/08 03:55:11;;;;;;;33.25;15.95;;;;;;;;;;4934827;29;20126;-71
2022/12/08 03:57:37;;;;;;;39.60;17.60;;;;;;;;;;4926897;29;20191;-72
2022/12/08 04:00:08;;;;;;;29.13;15.43;;;;;;;;;;4931881;29;20038;-71
2022/12/08 04:02:33;;;;;;;25.98;14.30;;;;;;;;;;4927804;29;20045;-72
2022/12/08 04:04:59;;;;;;;25.25;14.40;;;;;;;;;;4925751;29;20039;-72
2022/12/08 04:07:25;;;;;;;31.90;15.70;;;;;;;;;;4921866;29;20031;-72
2022/12/08 04:09:51;;;;;;;38.17;15.88;;;;;;;;;;4921829;29;20043;-72
2022/12/08 04:12:17;;;;;;;44.05;17.30;;;;;;;;;;4915106;29;20040;-71
2022/12/08 04:14:43;;;;;;;30.35;14.75;;;;;;;;;;4914993;29;20124;-71
2022/12/08 04:17:09;;;;;;;25.70;13.70;;;;;;;;;;4916630;29;20755;-72
2022/12/08 04:19:34;;;;;;;24.25;14.15;;;;;;;;;;4934071;29;20032;-72
2022/12/08 04:22:00;;;;;;;27.25;15.23;;;;;;;;;;4935207;29;20058;-72
2022/12/08 04:24:26;;;;;;;31.38;15.82;;;;;;;;;;4935304;29;20453;-72
2022/12/08 04:26:52;;;;;;;36.75;17.55;;;;;;;;;;4935616;29;20090;-72
2022/12/08 04:29:18;;;;;;;28.90;16.70;;;;;;;;;;4935209;29;20039;-73
2022/12/08 04:31:44;;;;;;;32.45;16.25;;;;;;;;;;4935423;29;20039;-72
2022/12/08 04:34:10;;;;;;;30.25;17.38;;;;;;;;;;4935225;28;20035;-72
2022/12/08 04:36:36;;;;;;;29.58;16.73;;;;;;;;;;4934992;29;20502;-73
2022/12/08 04:39:02;;;;;;;45.40;22.77;;;;;;;;;;4934934;29;20063;-72
2022/12/08 04:41:28;;;;;;;38.08;18.30;;;;;;;;;;4935006;29;20090;-72
2022/12/08 04:43:54;;;;;;;43.67;18.92;;;;;;;;;;4935413;29;20382;-73
2022/12/08 04:46:20;;;;;;;30.60;17.08;;;;;;;;;;4935017;29;20051;-73
2022/12/08 04:48:46;;;;;;;36.15;16.95;;;;;;;;;;4935463;29;20441;-72
2022/12/08 04:51:17;;;;;;;37.30;16.95;;;;;;;;;;4934981;29;20035;-72
2022/12/08 04:53:44;;;;;;;49.45;18.48;;;;;;;;;;4934827;29;20034;-73
2022/12/08 04:56:12;;;;;;;30.77;16.13;;;;;;;;;;4934210;29;20027;-72
2022/12/08 04:58:38;;;;;;;34.03;17.92;;;;;;;;;;4934337;29;20535;-72
2022/12/08 05:01:04;;;;;;;36.55;19.92;;;;;;;;;;4933674;28;20478;-72
2022/12/08 05:03:30;;;;;;;40.70;19.45;;;;;;;;;;4933831;29;20042;-73
2022/12/08 05:05:58;;;;;;;39.80;19.30;;;;;;;;;;4934288;29;20127;-72
2022/12/08 05:08:24;;;;;;;30.23;17.13;;;;;;;;;;4933150;29;20036;-72
2022/12/08 05:10:51;;;;;;;37.17;20.88;;;;;;;;;;4929231;29;20478;-72
2022/12/08 05:13:17;;;;;;;50.70;21.35;;;;;;;;;;4934586;29;20086;-72
2022/12/08 05:15:43;;;;;;;31.63;19.27;;;;;;;;;;4932464;29;20444;-75
2022/12/08 05:18:09;;;;;;;39.40;20.30;;;;;;;;;;4934535;29;20031;-74
2022/12/08 05:20:36;;;;;;;38.88;18.75;;;;;;;;;;4934789;29;20032;-71
2022/12/08 05:23:03;;;;;;;52.20;20.85;;;;;;;;;;4934190;29;20031;-72
2022/12/08 05:25:28;;;;;;;45.38;19.58;;;;;;;;;;4934455;29;20032;-72
2022/12/08 05:27:54;;;;;;;42.58;18.95;;;;;;;;;;4949055;29;20097;-73
2022/12/08 05:30:20;;;;;;;37.72;19.00;;;;;;;;;;4934878;29;20068;-71
2022/12/08 05:32:46;;;;;;;46.00;21.80;;;;;;;;;;4933826;29;20549;-72
2022/12/08 05:35:12;;;;;;;45.35;24.65;;;;;;;;;;4934805;29;20374;-72
2022/12/08 05:37:38;;;;;;;41.10;22.55;;;;;;;;;;4934977;29;20094;-72
2022/12/08 05:40:04;;;;;;;41.58;22.10;;;;;;;;;;4935222;29;20434;-72
2022/12/08 05:42:30;;;;;;;50.67;22.20;;;;;;;;;;4935058;28;20040;-72
2022/12/08 05:44:56;;;;;;;52.90;24.90;;;;;;;;;;4935006;29;20163;-72
2022/12/08 05:47:22;;;;;;;56.97;26.60;;;;;;;;;;4934870;29;20039;-73
2022/12/08 05:49:48;;;;;;;54.90;26.70;;;;;;;;;;4935058;29;20036;-72
2022/12/08 05:52:15;;;;;;;54.58;26.30;;;;;;;;;;4933478;29;20520;-72
2022/12/08 05:54:41;;;;;;;52.05;26.98;;;;;;;;;;4934897;29;20043;-72
2022/12/08 05:57:08;;;;;;;52.65;26.42;;;;;;;;;;4948896;29;20056;-72
2022/12/08 05:59:34;;;;;;;64.95;27.50;;;;;;;;;;4934965;29;20043;-71
2022/12/08 06:02:00;;;;;;;42.45;24.75;;;;;;;;;;4936634;29;20047;-72
2022/12/08 06:04:25;;;;;;;47.38;22.65;;;;;;;;;;4937625;29;20141;-72
2022/12/08 06:06:51;;;;;;;62.30;23.83;;;;;;;;;;4936216;29;20023;-71
2022/12/08 06:09:17;;;;;;;43.90;23.20;;;;;;;;;;4937402;29;20497;-71
2022/12/08 06:11:45;;;;;;;58.42;24.92;;;;;;;;;;4936782;28;20031;-72
2022/12/08 06:14:11;;;;;;;58.28;26.38;;;;;;;;;;4937497;29;20043;-72
2022/12/08 06:16:38;;;;;;;42.97;20.92;;;;;;;;;;4937574;29;20489;-72
2022/12/08 06:19:04;;;;;;;44.25;21.17;;;;;;;;;;4937244;29;20048;-72
2022/12/08 06:21:30;;;;;;;41.83;21.83;;;;;;;;;;4936911;29;20118;-72
2022/12/08 06:23:56;;;;;;;61.03;25.08;;;;;;;;;;4950982;29;20040;-72
2022/12/08 06:26:23;;;;;;;54.00;24.10;;;;;;;;;;4936646;29;20103;-72
2022/12/08 06:28:50;;;;;;;51.13;24.67;;;;;;;;;;4935660;29;20062;-72
2022/12/08 06:31:21;;;;;;;48.60;23.45;;;;;;;;;;4936743;28;20028;-73
2022/12/08 06:33:47;;;;;;;47.03;22.63;;;;;;;;;;4936644;29;20035;-72
2022/12/08 06:36:15;;;;;;;45.03;23.63;;;;;;;;;;4935863;29;20032;-72
2022/12/08 06:38:42;;;;;;;37.00;20.95;;;;;;;;;;4936829;29;20039;-73
2022/12/08 06:41:08;;;;;;;39.33;20.48;;;;;;;;;;4937389;29;20039;-72
2022/12/08 06:43:34;;;;;;;32.80;15.68;;;;;;;;;;4937711;28;20055;-72
2022/12/08 06:46:01;;;;;;;38.00;20.33;;;;;;;;;;4938810;29;20114;-71
2022/12/08 06:48:27;;;;;;;28.98;15.32;;;;;;;;;;4937142;29;20063;-73
2022/12/08 06:50:52;;;;;;;44.17;21.40;;;;;;;;;;4936755;29;20039;-72
2022/12/08 06:53:18;;;;;;;50.72;23.45;;;;;;;;;;4936373;29;20131;-72
2022/12/08 06:55:51;;;;;;;73.20;26.42;;;;;;;;;;4933864;29;20528;-72
2022/12/08 06:58:18;;;;;;;46.05;24.92;;;;;;;;;;4936479;29;20504;-72
2022/12/08 07:00:45;;;;;;;47.35;25.13;;;;;;;;;;4932630;29;20135;-72
2022/12/08 07:03:12;;;;;;;57.08;25.02;;;;;;;;;;4934372;29;20110;-72
2022/12/08 07:05:38;;;;;;;54.47;22.58;;;;;;;;;;4916202;29;20055;-72
2022/12/08 07:08:06;;;;;;;46.65;21.52;;;;;;;;;;4917973;29;20052;-72
2022/12/08 07:10:32;;;;;;;36.78;20.90;;;;;;;;;;4936049;29;20035;-72
2022/12/08 07:12:58;;;;;;;61.97;21.35;;;;;;;;;;4936413;29;20105;-73
2022/12/08 07:15:23;;;;;;;51.60;20.52;;;;;;;;;;4943846;29;20043;-73
2022/12/08 07:17:50;;;;;;;51.63;20.83;;;;;;;;;;4936549;29;20040;-72
2022/12/08 07:20:16;;;;;;;36.95;21.00;;;;;;;;;;4935058;29;20035;-72
2022/12/08 07:22:51;;;;;;;37.63;20.95;;;;;;;;;;4936268;29;20486;-73
2022/12/08 07:25:18;;;;;;;46.38;21.20;;;;;;;;;;4936063;29;20042;-73
2022/12/08 07:27:44;;;;;;;39.25;21.80;;;;;;;;;;4936008;29;20051;-72
2022/12/08 07:30:11;;;;;;;44.65;22.05;;;;;;;;;;4935747;29;20032;-72
2022/12/08 07:32:38;;;;;;;43.85;23.13;;;;;;;;;;4934053;29;20414;-72
2022/12/08 07:35:05;;;;;;;42.42;22.23;;;;;;;;;;4935876;29;20553;-72
2022/12/08 07:37:35;;;;;;;53.80;22.60;;;;;;;;;;4932334;29;20533;-72
2022/12/08 07:40:01;;;;;;;47.75;24.13;;;;;;;;;;4934196;29;20039;-72
2022/12/08 07:42:27;;;;;;;30.55;18.30;;;;;;;;;;4935918;29;20162;-71
2022/12/08 07:44:56;;;;;;;53.53;21.05;;;;;;;;;;4933402;29;20478;-75
2022/12/08 07:47:22;;;;;;;36.10;18.77;;;;;;;;;;4933666;29;20043;-75
2022/12/08 07:49:48;;;;;;;38.20;19.73;;;;;;;;;;4936357;29;20027;-75
2022/12/08 07:52:14;;;;;;;37.45;19.70;;;;;;;;;;4936007;29;20036;-72
2022/12/08 07:54:40;;;;;;;35.28;21.52;;;;;;;;;;4936661;29;20532;-72
2022/12/08 07:57:07;;;;;;;47.95;22.90;;;;;;;;;;4934522;29;20459;-74
2022/12/08 07:59:33;;;;;;;34.22;19.65;;;;;;;;;;4935164;29;20489;-74
2022/12/08 08:02:00;;;;;;;42.40;21.50;;;;;;;;;;4938523;29;20156;-74
2022/12/08 08:04:26;;;;;;;35.20;18.55;;;;;;;;;;4941530;29;20042;-74
2022/12/08 08:06:53;;;;;;;34.08;19.27;;;;;;;;;;4938871;29;20036;-75
2022/12/08 08:09:19;;;;;;;38.42;19.65;;;;;;;;;;4938773;29;20528;-74
2022/12/08 08:11:45;;;;;;;42.10;21.30;;;;;;;;;;4935435;29;20040;-76
2022/12/08 08:14:11;;;;;;;32.28;19.33;;;;;;;;;;4936521;29;20038;-75
2022/12/08 08:16:36;;;;;;;34.45;19.77;;;;;;;;;;4934741;29;20082;-74
2022/12/08 08:19:02;;;;;;;39.40;19.67;;;;;;;;;;4930959;29;20028;-75
2022/12/08 08:21:28;;;;;;;31.48;18.00;;;;;;;;;;4950536;29;20118;-76
2022/12/08 08:23:54;;;;;;;32.65;18.35;;;;;;;;;;4935158;29;20505;-76
2022/12/08 08:26:21;;;;;;;34.55;18.20;;;;;;;;;;4935678;29;20408;-74
2022/12/08 08:28:48;;;;;;;29.40;18.83;;;;;;;;;;4927105;29;20119;-75
2022/12/08 08:31:15;;;;;;;31.77;18.45;;;;;;;;;;4935603;29;20497;-76
2022/12/08 08:33:41;;;;;;;31.80;17.90;;;;;;;;;;4936025;29;20028;-76
2022/12/08 08:36:08;;;;;;;31.73;18.83;;;;;;;;;;4917940;29;20573;-74
2022/12/08 08:38:38;;;;;;;28.35;18.42;;;;;;;;;;4948974;29;20158;-75
2022/12/08 08:41:10;;;;;;;40.25;19.60;;;;;;;;;;4920462;29;20059;-77
2022/12/08 08:43:36;;;;;;;34.13;19.10;;;;;;;;;;4917855;29;20090;-77
2022/12/08 08:46:05;;;;;;;36.30;19.65;;;;;;;;;;4925056;29;20043;-76
2022/12/08 08:48:31;;;;;;;41.28;19.88;;;;;;;;;;4916211;29;20556;-76
2022/12/08 08:50:58;;;;;;;47.22;19.98;;;;;;;;;;4917015;29;20098;-76
2022/12/08 08:53:24;;;;;;;38.92;21.77;;;;;;;;;;4930978;29;20060;-75
2022/12/08 08:55:51;;;;;;;33.35;19.13;;;;;;;;;;4914939;29;20064;-76
2022/12/08 08:58:17;;;;;;;33.22;19.48;;;;;;;;;;4914821;29;20556;-74
2022/12/08 09:00:45;;;;;;;41.63;21.98;;;;;;;;;;4930448;29;20031;-74
2022/12/08 09:03:11;;;;;;;44.58;19.98;;;;;;;;;;4923778;29;20016;-76
2022/12/08 09:05:40;;;;;;;34.60;20.23;;;;;;;;;;4931156;29;20111;-75
2022/12/08 09:08:06;;;;;;;37.40;19.95;;;;;;;;;;4927662;29;20031;-78
2022/12/08 09:10:32;;;;;;;27.15;18.08;;;;;;;;;;4918881;28;20583;-76
2022/12/08 09:12:59;;;;;;;30.90;17.55;;;;;;;;;;4927337;29;20350;-76
2022/12/08 09:15:27;;;;;;;28.38;16.45;;;;;;;;;;4929519;29;20043;-77
2022/12/08 09:17:53;;;;;;;29.85;17.05;;;;;;;;;;4932440;29;20043;-77
2022/12/08 09:20:20;;;;;;;38.15;19.52;;;;;;;;;;4946442;28;20040;-77
2022/12/08 09:22:46;;;;;;;28.20;17.92;;;;;;;;;;4927615;29;20372;-76
2022/12/08 09:25:12;;;;;;;30.67;18.95;;;;;;;;;;4931829;29;20151;-74
2022/12/08 09:27:38;;;;;;;43.72;24.02;;;;;;;;;;4931995;29;20055;-74
2022/12/08 09:30:05;;;;;;;38.58;18.45;;;;;;;;;;4934484;29;20106;-74
2022/12/08 09:32:31;;;;;;;26.00;15.88;;;;;;;;;;4933853;29;20070;-74
2022/12/08 09:34:59;;;;;;;27.40;17.20;;;;;;;;;;4934855;28;20493;-73
2022/12/08 09:37:26;;;;;;;25.55;17.17;;;;;;;;;;4936849;29;20130;-74
2022/12/08 09:39:53;;;;;;;25.17;16.25;;;;;;;;;;4933999;29;20023;-71
2022/12/08 09:42:36;;;;;;;32.17;15.82;;;;;;;;;;4933134;29;20453;-75
2022/12/08 09:45:10;;;;;;;24.67;16.23;;;;;;;;;;4918021;29;20051;-75
2022/12/08 09:47:38;;;;;;;28.08;16.65;;;;;;;;;;4917148;29;20064;-75
2022/12/08 09:50:33;;;;;;;28.05;17.45;;;;;;;;;;4927612;29;20078;-75
2022/12/08 09:53:11;;;;;;;;;;;;;;;;;;4937430;29;20070;-76
2022/12/08 09:55:48;;;;;;;25.65;16.08;;;;;;;;;;4936278;29;19942;-76
2022/12/08 09:58:24;;;;;;;27.05;16.92;;;;;;;;;;4935786;29;20039;-76
2022/12/08 10:00:50;;;;;;;24.88;15.57;;;;;;;;;;4935871;29;20443;-74
2022/12/08 10:03:17;;;;;;;30.38;17.20;;;;;;;;;;4931540;29;20106;-74
2022/12/08 10:06:04;;;;;;;24.98;14.88;;;;;;;;;;4935351;29;20043;-74
2022/12/08 10:08:40;;;;;;;20.90;14.35;;;;;;;;;;4931476;29;20058;-73
2022/12/08 10:11:23;;;;;;;21.98;14.27;;;;;;;;;;4930073;29;20036;-74
2022/12/08 10:14:30;;;;;;;21.63;14.00;;;;;;;;;;4916386;29;20408;-76
2022/12/08 10:17:14;;;;;;;24.50;14.45;;;;;;;;;;4915118;29;20083;-75
2022/12/08 10:19:42;;;;;;;26.67;15.07;;;;;;;;;;4917091;29;20056;-75
2022/12/08 10:22:21;;;;;;;30.65;16.05;;;;;;;;;;4856029;29;1837765;-75
2022/12/08 10:24:59;;;;;;;28.80;16.65;;;;;;;;;;4934041;29;20099;-76
2022/12/08 10:27:26;;;;;;;31.15;16.23;;;;;;;;;;4921430;29;20171;-75
2022/12/08 10:29:52;;;;;;;27.88;16.08;;;;;;;;;;4919497;29;20090;-75
2022/12/08 10:32:21;;;;;;;31.80;15.48;;;;;;;;;;4928304;29;20067;-76
2022/12/08 10:35:12;;;;;;;29.45;15.50;;;;;;;;;;4937355;29;20043;-76
2022/12/08 10:37:39;;;;;;;28.08;16.30;;;;;;;;;;4937210;29;20671;-74
2022/12/08 10:40:13;;;;;;;31.98;14.48;;;;;;;;;;4932192;29;20036;-74
2022/12/08 10:42:45;;;;;;;30.40;17.02;;;;;;;;;;4918527;29;20046;-75
2022/12/08 10:45:32;;;;;;;27.17;17.27;;;;;;;;;;4918351;29;20076;-75
2022/12/08 10:48:03;;;;;;;29.40;16.23;;;;;;;;;;4919395;29;20135;-75
2022/12/08 10:50:52;;;;;;;29.48;17.73;;;;;;;;;;4917720;29;20040;-77
2022/12/08 10:53:26;;;;;;;27.67;16.25;;;;;;;;;;4917901;29;20454;-75
2022/12/08 10:56:06;;;;;;;33.15;16.92;;;;;;;;;;4917999;29;20064;-76
2022/12/08 10:59:04;;;;;;;25.23;16.50;;;;;;;;;;4917447;29;20044;-76
2022/12/08 11:01:37;;;;;;;29.00;18.25;;;;;;;;;;4920267;29;20040;-74
2022/12/08 11:04:12;;;;;;;27.95;18.05;;;;;;;;;;4918087;29;20375;-76
2022/12/08 11:06:39;;;;;;;28.58;17.02;;;;;;;;;;4931354;29;20070;-75
2022/12/08 11:09:14;;;;;;;32.78;20.25;;;;;;;;;;4936857;29;20035;-76
2022/12/08 11:12:04;;;;;;;33.60;19.30;;;;;;;;;;4937141;29;20103;-75
2022/12/08 11:14:46;;;;;;;31.17;19.15;;;;;;;;;;4937035;29;20430;-75
2022/12/08 11:17:15;;;;;;;29.27;18.35;;;;;;;;;;4935095;29;20028;-75
2022/12/08 11:19:54;;;;;;;31.45;18.50;;;;;;;;;;4935543;29;20737;-76
2022/12/08 11:22:23;;;;;;;27.05;17.33;;;;;;;;;;4933553;29;20082;-75
2022/12/08 11:25:15;;;;;;;31.92;19.50;;;;;;;;;;4934891;28;20062;-75
2022/12/08 11:27:43;;;;;;;24.70;15.35;;;;;;;;;;4934609;29;20084;-76
2022/12/08 11:30:19;;;;;;;27.77;15.65;;;;;;;;;;4935254;29;20032;-76
2022/12/08 11:33:14;;;;;;;35.30;18.45;;;;;;;;;;4933380;29;20035;-75
2022/12/08 11:35:43;;;;;;;26.60;15.40;;;;;;;;;;4931296;29;20078;-74
2022/12/08 11:38:11;;;;;;;34.85;17.85;;;;;;;;;;4934908;29;20405;-75
2022/12/08 11:40:40;;;;;;;32.75;19.80;;;;;;;;;;4936618;29;20500;-75
2022/12/08 11:43:18;;;;;;;30.60;17.77;;;;;;;;;;4936357;29;20401;-75
2022/12/08 11:45:51;;;;;;;36.63;18.05;;;;;;;;;;4935747;29;20043;-76
2022/12/08 11:48:35;;;;;;;31.13;17.63;;;;;;;;;;4936709;29;20050;-76
2022/12/08 11:51:15;;;;;;;24.67;16.45;;;;;;;;;;4936016;29;20048;-75
2022/12/08 11:54:13;;;;;;;29.30;17.30;;;;;;;;;;4935038;29;20042;-76
2022/12/08 11:56:46;;;;;;;30.27;15.88;;;;;;;;;;4936213;29;20390;-77
2022/12/08 11:59:26;;;;;;;26.55;15.30;;;;;;;;;;4935790;29;20036;-77
2022/12/08 12:01:52;;;;;;;24.90;15.95;;;;;;;;;;4934833;29;20122;-78
2022/12/08 12:04:47;;;;;;;25.90;14.27;;;;;;;;;;4951885;29;20024;-76
2022/12/08 12:07:28;;;;;;;24.60;15.15;;;;;;;;;;4939368;29;20036;-77
2022/12/08 12:09:58;;;;;;;22.63;11.57;;;;;;;;;;4937054;29;20111;-77
2022/12/08 12:12:48;;;;;;;18.27;12.32;;;;;;;;;;4936738;29;20051;-76
2022/12/08 12:15:48;;;;;;;19.63;12.43;;;;;;;;;;4934359;29;20484;-74
2022/12/08 12:18:45;;;;;;;22.23;13.27;;;;;;;;;;4934716;29;20130;-75
2022/12/08 12:21:19;;;;;;;18.13;10.82;;;;;;;;;;4932802;29;20124;-78
2022/12/08 12:24:08;;;;;;;27.48;13.10;;;;;;;;;;4928560;29;20060;-74
2022/12/08 12:26:38;;;;;;;21.55;13.55;;;;;;;;;;4934331;29;20039;-74
2022/12/08 12:29:16;;;;;;;26.83;13.48;;;;;;;;;;4935834;29;20135;-75
2022/12/08 12:31:47;;;;;;;35.00;19.52;;;;;;;;;;4936282;28;20115;-74
2022/12/08 12:34:19;;;;;;;22.30;13.98;;;;;;;;;;4935803;29;20034;-74
2022/12/08 12:36:57;;;;;;;22.00;14.10;;;;;;;;;;4931620;29;20058;-75
2022/12/08 12:39:30;;;;;;;18.98;12.93;;;;;;;;;;4918273;29;20505;-75
2022/12/08 12:42:00;;;;;;;24.77;14.35;;;;;;;;;;4917104;29;20483;-73
2022/12/08 12:44:32;;;;;;;24.48;15.07;;;;;;;;;;4916799;29;20039;-76
2022/12/08 12:47:00;;;;;;;24.38;14.63;;;;;;;;;;4916570;29;20502;-74
2022/12/08 12:49:49;;;;;;;27.75;15.68;;;;;;;;;;4916290;29;20043;-76
2022/12/08 12:52:15;;;;;;;23.50;13.38;;;;;;;;;;4916417;29;20041;-74
2022/12/08 12:54:42;;;;;;;21.05;13.07;;;;;;;;;;4916508;29;20529;-74
2022/12/08 12:57:08;;;;;;;25.20;13.00;;;;;;;;;;4916087;29;20043;-74
2022/12/08 12:59:53;;;;;;;21.38;13.15;;;;;;;;;;4916372;29;20131;-73
2022/12/08 13:02:30;;;;;;;27.23;13.48;;;;;;;;;;4950126;29;20125;-74
2022/12/08 13:05:22;;;;;;;20.20;12.60;;;;;;;;;;4949452;29;20460;-74
2022/12/08 13:07:51;;;;;;;28.85;13.98;;;;;;;;;;4936340;29;20102;-73
2022/12/08 13:10:28;;;;;;;21.08;11.82;;;;;;;;;;4932559;29;20046;-75
2022/12/08 13:13:11;;;;;;;21.10;11.27;;;;;;;;;;4935341;29;20047;-75
2022/12/08 13:15:38;;;;;;;32.28;13.57;;;;;;;;;;4933998;29;20039;-74
2022/12/08 13:18:22;;;;;;;19.50;10.80;;;;;;;;;;4934204;29;20040;-73
2022/12/08 13:21:02;;;;;;;41.35;12.05;;;;;;;;;;4933362;29;20043;-75
2022/12/08 13:23:37;;;;;;;25.85;10.98;;;;;;;;;;4922326;29;20498;-73
2022/12/08 13:26:17;;;;;;;36.40;12.45;;;;;;;;;;4918788;29;20233;-73
2022/12/08 13:29:02;;;;;;;23.20;11.63;;;;;;;;;;4915498;29;20038;-73
2022/12/08 13:31:48;;;;;;;42.30;13.55;;;;;;;;;;4915372;29;20402;-74
2022/12/08 13:34:32;;;;;;;34.40;14.48;;;;;;;;;;4914927;29;20032;-73
2022/12/08 13:37:17;;;;;;;40.67;14.90;;;;;;;;;;4916626;29;20040;-73
2022/12/08 13:40:16;;;;;;;49.92;16.42;;;;;;;;;;4953341;28;20039;-75
2022/12/08 13:43:05;;;;;;;24.00;14.10;;;;;;;;;;4941720;29;20040;-73
2022/12/08 13:45:34;;;;;;;29.75;16.70;;;;;;;;;;4953074;29;20035;-74
2022/12/08 13:48:09;;;;;;;35.05;14.75;;;;;;;;;;4939191;28;20106;-74
2022/12/08 13:50:55;;;;;;;60.38;18.52;;;;;;;;;;4925252;29;20102;-74
2022/12/08 13:53:43;;;;;;;31.92;14.90;;;;;;;;;;4927134;29;20115;-73
2022/12/08 13:56:11;;;;;;;30.65;14.32;;;;;;;;;;4933818;29;20115;-73
2022/12/08 13:58:38;;;;;;;25.35;14.25;;;;;;;;;;4933855;29;20079;-73
2022/12/08 14:01:20;;;;;;;30.83;15.05;;;;;;;;;;4932889;29;20032;-75
2022/12/08 14:03:59;;;;;;;29.48;14.85;;;;;;;;;;4932801;29;20032;-74
2022/12/08 14:06:29;;;;;;;28.80;14.85;;;;;;;;;;4929976;29;20028;-74
2022/12/08 14:09:00;;;;;;;30.13;15.93;;;;;;;;;;4934058;29;20126;-75
2022/12/08 14:11:37;;;;;;;28.45;15.75;;;;;;;;;;4934051;29;20036;-75
2022/12/08 14:14:16;;;;;;;35.28;15.68;;;;;;;;;;4932595;29;20027;-75
2022/12/08 14:16:55;;;;;;;36.55;16.25;;;;;;;;;;4931385;29;20032;-72
2022/12/08 14:19:24;;;;;;;42.33;17.50;;;;;;;;;;4930317;29;20070;-75
2022/12/08 14:21:52;;;;;;;38.35;18.67;;;;;;;;;;4935800;29;20103;-74
2022/12/08 14:24:21;;;;;;;45.28;18.83;;;;;;;;;;4936682;28;20410;-75
2022/12/08 14:26:51;;;;;;;63.00;19.92;;;;;;;;;;4951099;29;20091;-75
2022/12/08 14:29:54;;;;;;;34.17;17.00;;;;;;;;;;4929760;29;20047;-73
2022/12/08 14:32:33;;;;;;;75.18;19.90;;;;;;;;;;4926330;29;20738;-73
2022/12/08 14:35:06;;;;;;;64.45;19.35;;;;;;;;;;4938849;29;20054;-74
2022/12/08 14:37:35;;;;;;;45.17;19.67;;;;;;;;;;4936081;29;20058;-74
2022/12/08 14:40:24;;;;;;;30.52;18.17;;;;;;;;;;4935937;29;20040;-74
2022/12/08 14:43:07;;;;;;;44.55;19.40;;;;;;;;;;4915748;29;20053;-72
2022/12/08 14:45:46;;;;;;;29.65;18.95;;;;;;;;;;4932444;29;20028;-72
2022/12/08 14:48:25;;;;;;;37.42;18.10;;;;;;;;;;4935502;29;20031;-72